Time;durP1;ratioP1;P1;durP2;ratioP2;P2;SDS_P1;SDS_P2;PMS_P1;PMS_P2;Temp;Humidity;BMP_temperature;BMP_pressure;BME280_temperature;BME280_humidity;BME280_pressure;Samples;Min_cycle;Max_cycle;Signal;HPM_P1;HPM_P2
2023/03/13 00:00:37;;;;;;;8.97;3.90;;;12.30;75.50;;;;;;911341;153;27336;-75
2023/03/13 00:03:04;;;;;;;12.30;4.03;;;12.30;75.40;;;;;;908628;154;27414;-77
2023/03/13 00:05:30;;;;;;;10.77;3.80;;;12.30;75.60;;;;;;909057;152;27460;-76
2023/03/13 00:07:57;;;;;;;8.93;3.50;;;12.20;75.60;;;;;;926374;151;27402;-76
2023/03/13 00:10:25;;;;;;;8.47;3.10;;;12.20;75.70;;;;;;926162;151;27462;-76
2023/03/13 00:12:50;;;;;;;9.80;3.10;;;12.20;75.80;;;;;;910011;154;27476;-76
2023/03/13 00:15:17;;;;;;;8.00;3.17;;;12.20;75.90;;;;;;925795;151;27502;-75
2023/03/13 00:17:43;;;;;;;7.37;3.60;;;12.20;76.00;;;;;;924248;151;27397;-76
2023/03/13 00:20:10;;;;;;;6.87;3.03;;;12.20;76.10;;;;;;923912;151;27343;-75
2023/03/13 00:22:36;;;;;;;8.80;3.27;;;12.10;76.20;;;;;;924477;151;27368;-75
2023/03/13 00:25:03;;;;;;;6.90;3.20;;;12.20;76.40;;;;;;930569;150;27319;-76
2023/03/13 00:27:33;;;;;;;10.00;3.43;;;12.10;76.40;;;;;;928301;150;27516;-76
2023/03/13 00:29:59;;;;;;;10.30;3.37;;;12.10;76.40;;;;;;925297;150;27495;-75
2023/03/13 00:32:26;;;;;;;11.17;3.80;;;12.10;76.50;;;;;;917446;153;27319;-76
2023/03/13 00:34:52;;;;;;;8.10;3.30;;;12.10;76.50;;;;;;909072;154;27394;-75
2023/03/13 00:37:19;;;;;;;5.70;2.57;;;12.10;76.60;;;;;;924567;151;27480;-75
2023/03/13 00:39:46;;;;;;;10.27;3.47;;;12.10;76.70;;;;;;908305;154;27804;-76
2023/03/13 00:42:12;;;;;;;8.83;2.70;;;12.10;76.70;;;;;;907459;154;27398;-76
2023/03/13 00:44:39;;;;;;;10.53;3.03;;;12.10;76.90;;;;;;924074;151;27368;-76
2023/03/13 00:47:06;;;;;;;8.40;3.37;;;12.10;76.90;;;;;;925944;151;27380;-75
2023/03/13 00:49:32;;;;;;;10.37;3.00;;;12.10;77.00;;;;;;928562;150;27402;-76
2023/03/13 00:51:59;;;;;;;6.93;2.77;;;12.20;77.10;;;;;;927676;150;27411;-76
2023/03/13 00:54:25;;;;;;;7.57;2.77;;;12.10;77.00;;;;;;927519;150;27455;-75
2023/03/13 00:56:52;;;;;;;10.33;2.90;;;12.10;77.10;;;;;;925385;150;27419;-76
2023/03/13 00:59:18;;;;;;;6.57;3.13;;;12.10;77.10;;;;;;927289;151;27475;-76
2023/03/13 01:01:46;;;;;;;5.33;2.60;;;12.20;77.20;;;;;;926105;151;27806;-75
2023/03/13 01:04:11;;;;;;;8.90;2.90;;;12.20;77.20;;;;;;926092;151;27383;-76
2023/03/13 01:06:39;;;;;;;9.03;3.10;;;12.20;77.20;;;;;;926925;151;27346;-75
2023/03/13 01:09:05;;;;;;;9.87;2.33;;;12.20;77.20;;;;;;925433;151;27434;-76
2023/03/13 01:11:31;;;;;;;6.30;3.50;;;12.20;77.30;;;;;;926168;151;27483;-77
2023/03/13 01:13:58;;;;;;;9.17;2.80;;;12.20;77.10;;;;;;924974;151;27367;-76
2023/03/13 01:16:25;;;;;;;8.50;2.90;;;12.20;77.10;;;;;;924892;151;27319;-76
2023/03/13 01:18:51;;;;;;;7.00;2.60;;;12.20;77.10;;;;;;925737;151;27340;-76
2023/03/13 01:21:21;;;;;;;5.73;2.47;;;12.20;77.10;;;;;;925484;151;27408;-76
2023/03/13 01:23:44;;;;;;;5.80;2.37;;;12.20;77.10;;;;;;925632;151;27313;-76
2023/03/13 01:26:11;;;;;;;7.93;2.73;;;12.10;77.00;;;;;;925823;151;27298;-76
2023/03/13 01:28:37;;;;;;;9.80;3.23;;;12.10;77.00;;;;;;929067;151;27430;-76
2023/03/13 01:31:19;;;;;;;5.90;2.30;;;12.10;77.00;;;;;;927604;151;27386;-76
2023/03/13 01:33:46;;;;;;;7.90;2.30;;;12.00;77.20;;;;;;924718;151;27506;-76
2023/03/13 01:36:12;;;;;;;7.23;2.80;;;12.00;76.70;;;;;;924690;151;27371;-76
2023/03/13 01:38:39;;;;;;;6.17;2.50;;;11.90;77.20;;;;;;925890;151;27394;-76
2023/03/13 01:41:06;;;;;;;6.87;2.43;;;11.90;77.40;;;;;;924663;151;27291;-76
2023/03/13 01:43:32;;;;;;;9.27;3.10;;;11.80;77.60;;;;;;926482;151;27408;-76
2023/03/13 01:46:17;;;;;;;7.97;2.70;;;11.80;77.80;;;;;;925558;151;27491;-75
2023/03/13 01:49:01;;;;;;;5.43;2.40;;;11.80;78.00;;;;;;925480;151;27447;-75
2023/03/13 01:51:43;;;;;;;8.27;3.63;;;11.80;78.20;;;;;;925217;151;27451;-76
2023/03/13 01:54:12;;;;;;;6.87;2.97;;;11.90;78.40;;;;;;925970;151;27440;-76
2023/03/13 01:57:00;;;;;;;5.67;2.20;;;11.90;78.50;;;;;;926257;151;27394;-76
2023/03/13 01:59:42;;;;;;;8.70;2.43;;;11.90;78.70;;;;;;924500;151;27358;-76
2023/03/13 02:02:08;;;;;;;4.03;1.90;;;12.00;78.90;;;;;;925313;151;27463;-76
2023/03/13 02:04:35;;;;;;;8.23;2.60;;;12.00;78.80;;;;;;925705;151;27380;-76
2023/03/13 02:07:01;;;;;;;6.10;2.93;;;12.00;78.90;;;;;;927214;151;27422;-76
2023/03/13 02:09:28;;;;;;;6.13;2.40;;;12.10;78.90;;;;;;927182;151;27362;-76
2023/03/13 02:12:01;;;;;;;8.10;2.50;;;12.10;78.90;;;;;;910694;153;27466;-75
2023/03/13 02:14:27;;;;;;;7.93;2.67;;;12.20;78.90;;;;;;925695;151;27351;-76
2023/03/13 02:16:54;;;;;;;6.83;2.43;;;12.30;79.00;;;;;;925265;151;27411;-76
2023/03/13 02:19:42;;;;;;;8.70;2.77;;;12.30;79.00;;;;;;924558;151;27721;-76
2023/03/13 02:22:26;;;;;;;8.17;2.70;;;12.30;79.10;;;;;;918165;153;27317;-76
2023/03/13 02:24:53;;;;;;;6.87;3.00;;;12.40;79.10;;;;;;907868;153;27346;-76
2023/03/13 02:27:19;;;;;;;5.50;2.40;;;12.50;79.10;;;;;;917972;153;27493;-76
2023/03/13 02:29:46;;;;;;;4.57;1.93;;;12.50;79.10;;;;;;911947;153;27527;-75
2023/03/13 02:32:12;;;;;;;5.80;2.03;;;12.60;79.20;;;;;;909251;153;27510;-76
2023/03/13 02:34:39;;;;;;;8.73;2.83;;;12.60;79.30;;;;;;911166;153;27475;-76
2023/03/13 02:37:06;;;;;;;5.47;2.13;;;12.70;79.20;;;;;;910835;153;27504;-76
2023/03/13 02:39:32;;;;;;;5.40;2.33;;;12.70;79.40;;;;;;908886;153;27422;-75
2023/03/13 02:41:59;;;;;;;6.97;2.47;;;12.70;79.50;;;;;;917850;153;27468;-76
2023/03/13 02:44:25;;;;;;;5.73;2.50;;;12.70;79.60;;;;;;909347;153;27393;-76
2023/03/13 02:46:52;;;;;;;8.17;2.77;;;12.80;79.80;;;;;;912193;153;27408;-76
2023/03/13 02:49:24;;;;;;;5.50;2.27;;;12.80;80.00;;;;;;918347;153;27438;-76
2023/03/13 02:51:51;;;;;;;6.73;2.50;;;12.80;80.20;;;;;;909348;153;27520;-76
2023/03/13 02:54:18;;;;;;;6.33;2.50;;;12.80;80.30;;;;;;926904;151;27418;-76
2023/03/13 02:56:44;;;;;;;5.08;2.25;;;12.80;80.50;;;;;;908280;153;27374;-76
2023/03/13 02:59:11;;;;;;;5.67;2.33;;;12.80;80.70;;;;;;909383;153;27468;-76
2023/03/13 03:01:37;;;;;;;4.70;2.60;;;12.80;80.90;;;;;;910922;153;27459;-75
2023/03/13 03:04:04;;;;;;;7.53;2.40;;;12.80;81.00;;;;;;926231;150;27481;-76
2023/03/13 03:06:31;;;;;;;6.87;2.77;;;12.80;81.30;;;;;;910405;153;27391;-76
2023/03/13 03:08:57;;;;;;;5.13;2.40;;;12.80;81.40;;;;;;926724;151;27393;-76
2023/03/13 03:11:24;;;;;;;9.07;3.10;;;12.80;81.60;;;;;;909881;153;27441;-76
2023/03/13 03:13:50;;;;;;;5.22;2.50;;;12.80;81.80;;;;;;906763;153;27441;-75
2023/03/13 03:16:20;;;;;;;5.57;3.00;;;12.80;82.10;;;;;;924911;151;27479;-75
2023/03/13 03:18:46;;;;;;;6.87;2.80;;;12.70;82.20;;;;;;911027;153;27502;-76
2023/03/13 03:21:13;;;;;;;5.33;2.70;;;12.70;83.40;;;;;;917881;152;27391;-76
2023/03/13 03:23:40;;;;;;;5.90;2.57;;;12.70;82.80;;;;;;907883;153;27473;-75
2023/03/13 03:26:06;;;;;;;6.10;2.60;;;12.70;83.20;;;;;;908243;153;27473;-75
2023/03/13 03:28:33;;;;;;;5.87;2.50;;;12.70;83.50;;;;;;927287;151;27525;-76
2023/03/13 03:31:05;;;;;;;5.47;2.50;;;12.70;83.70;;;;;;927245;151;27384;-76
2023/03/13 03:33:32;;;;;;;5.27;2.90;;;12.70;84.00;;;;;;922941;151;27427;-76
2023/03/13 03:36:01;;;;;;;6.23;3.20;;;12.60;84.20;;;;;;927038;151;27399;-76
2023/03/13 03:38:28;;;;;;;7.90;2.87;;;12.60;84.50;;;;;;925705;151;27466;-76
2023/03/13 03:40:54;;;;;;;7.60;2.60;;;12.60;84.70;;;;;;924812;151;27395;-76
2023/03/13 03:43:21;;;;;;;9.07;2.03;;;12.60;85.00;;;;;;925123;151;27550;-76
2023/03/13 03:45:47;;;;;;;9.10;2.10;;;12.60;85.30;;;;;;927237;151;27343;-76
2023/03/13 03:48:14;;;;;;;5.23;1.97;;;12.60;85.50;;;;;;927478;151;27472;-76
2023/03/13 03:50:40;;;;;;;7.10;2.30;;;12.60;85.80;;;;;;928163;151;27387;-76
2023/03/13 03:53:08;;;;;;;6.93;2.37;;;12.70;86.20;;;;;;924672;151;27582;-76
2023/03/13 03:55:34;;;;;;;4.50;2.00;;;12.70;86.40;;;;;;925053;151;27408;-76
2023/03/13 03:58:00;;;;;;;8.00;2.33;;;12.70;86.80;;;;;;925630;151;27307;-76
2023/03/13 04:00:27;;;;;;;5.80;2.00;;;12.70;87.10;;;;;;925490;151;27524;-76
2023/03/13 04:02:54;;;;;;;3.33;1.90;;;12.70;87.50;;;;;;926701;151;27410;-76
2023/03/13 04:05:20;;;;;;;4.77;2.13;;;12.70;87.70;;;;;;927053;151;27386;-76
2023/03/13 04:07:47;;;;;;;4.33;2.10;;;12.70;87.90;;;;;;928087;151;27338;-76
2023/03/13 04:10:13;;;;;;;7.07;2.23;;;12.70;88.10;;;;;;927905;151;27323;-76
2023/03/13 04:12:40;;;;;;;5.10;1.90;;;12.70;88.60;;;;;;927018;151;27384;-76
2023/03/13 04:15:06;;;;;;;5.47;2.00;;;12.70;88.70;;;;;;927524;151;27389;-76
2023/03/13 04:17:33;;;;;;;4.27;2.00;;;12.70;89.20;;;;;;928092;151;27472;-76
2023/03/13 04:20:00;;;;;;;3.03;1.70;;;12.70;89.60;;;;;;926310;151;27368;-76
2023/03/13 04:22:26;;;;;;;6.63;2.00;;;12.70;89.90;;;;;;927306;151;27313;-75
2023/03/13 04:24:53;;;;;;;3.33;1.60;;;12.70;90.00;;;;;;926605;151;27411;-76
2023/03/13 04:27:19;;;;;;;3.70;1.77;;;12.70;90.30;;;;;;909362;154;27408;-76
2023/03/13 04:29:46;;;;;;;4.60;1.70;;;12.70;90.50;;;;;;926063;151;27358;-76
2023/03/13 04:32:12;;;;;;;4.80;1.30;;;12.70;90.80;;;;;;930502;150;27440;-76
2023/03/13 04:34:39;;;;;;;6.20;1.70;;;12.70;90.90;;;;;;911457;153;27325;-76
2023/03/13 04:37:06;;;;;;;3.20;1.30;;;12.70;91.20;;;;;;924706;151;27407;-76
2023/03/13 04:39:32;;;;;;;3.65;1.67;;;12.80;91.40;;;;;;909429;153;27378;-76
2023/03/13 04:41:59;;;;;;;2.83;1.40;;;12.80;92.10;;;;;;918228;153;27356;-75
2023/03/13 04:44:25;;;;;;;4.50;1.50;;;12.80;91.90;;;;;;909490;153;27366;-75
2023/03/13 04:46:52;;;;;;;2.60;1.50;;;12.80;92.30;;;;;;927104;151;27389;-76
2023/03/13 04:49:19;;;;;;;4.40;1.63;;;12.80;92.20;;;;;;925761;151;27399;-76
2023/03/13 04:51:45;;;;;;;2.80;1.50;;;12.80;92.40;;;;;;927558;150;27360;-75
2023/03/13 04:54:12;;;;;;;2.63;1.57;;;12.80;92.60;;;;;;909842;153;27430;-75
2023/03/13 04:56:38;;;;;;;3.57;1.80;;;12.90;92.80;;;;;;910056;153;27475;-76
2023/03/13 04:59:05;;;;;;;2.57;1.37;;;12.90;92.80;;;;;;908063;153;27478;-76
2023/03/13 05:01:32;;;;;;;2.13;1.47;;;12.90;93.00;;;;;;904814;153;27446;-76
2023/03/13 05:03:58;;;;;;;4.50;1.40;;;12.90;93.10;;;;;;916817;152;27353;-76
2023/03/13 05:06:25;;;;;;;4.57;1.67;;;12.90;93.40;;;;;;925146;151;27475;-76
2023/03/13 05:08:51;;;;;;;3.17;1.40;;;13.00;93.20;;;;;;905467;154;27460;-76
2023/03/13 05:11:18;;;;;;;3.08;1.10;;;13.00;93.30;;;;;;905335;153;27814;-76
2023/03/13 05:13:44;;;;;;;4.23;1.37;;;13.00;93.40;;;;;;902659;154;27342;-76
2023/03/13 05:16:11;;;;;;;3.52;1.47;;;13.00;93.60;;;;;;940694;148;27374;-76
2023/03/13 05:18:38;;;;;;;3.20;1.60;;;13.10;93.80;;;;;;924009;151;27415;-76
2023/03/13 05:21:04;;;;;;;2.73;1.20;;;13.10;93.90;;;;;;925119;151;27430;-76
2023/03/13 05:23:31;;;;;;;2.43;1.63;;;13.10;93.90;;;;;;940117;148;27370;-76
2023/03/13 05:25:57;;;;;;;2.17;1.67;;;13.10;94.10;;;;;;924582;151;27460;-76
2023/03/13 05:28:24;;;;;;;5.10;1.67;;;13.20;94.20;;;;;;918774;152;27336;-76
2023/03/13 05:30:51;;;;;;;2.72;1.22;;;13.20;94.50;;;;;;903888;154;27422;-76
2023/03/13 05:33:18;;;;;;;2.57;1.20;;;13.20;94.60;;;;;;917839;152;27409;-76
2023/03/13 05:35:44;;;;;;;2.77;1.00;;;13.20;94.70;;;;;;903704;154;27486;-76
2023/03/13 05:38:10;;;;;;;2.20;1.20;;;13.30;94.90;;;;;;903112;155;27366;-76
2023/03/13 05:40:37;;;;;;;1.52;1.10;;;13.30;94.90;;;;;;920812;152;27349;-76
2023/03/13 05:43:04;;;;;;;1.40;0.83;;;13.30;94.80;;;;;;918947;152;27513;-76
2023/03/13 05:45:30;;;;;;;3.33;1.40;;;13.40;94.90;;;;;;920047;152;27405;-76
2023/03/13 05:47:59;;;;;;;1.62;1.00;;;13.40;95.10;;;;;;918605;152;27348;-76
2023/03/13 05:50:23;;;;;;;1.63;0.90;;;13.40;95.10;;;;;;916299;152;27465;-76
2023/03/13 05:52:50;;;;;;;0.97;0.90;;;13.50;95.10;;;;;;904801;155;27547;-75
2023/03/13 05:55:16;;;;;;;0.90;0.90;;;13.50;95.20;;;;;;903507;155;27410;-76
2023/03/13 05:57:46;;;;;;;1.12;1.00;;;13.50;95.60;;;;;;919240;152;27404;-76
2023/03/13 06:00:13;;;;;;;2.08;1.25;;;13.60;95.50;;;;;;923872;151;27390;-76
2023/03/13 06:02:39;;;;;;;1.85;1.07;;;13.60;95.50;;;;;;924962;151;27348;-76
2023/03/13 06:05:06;;;;;;;1.75;1.15;;;13.60;95.50;;;;;;925473;151;27490;-76
2023/03/13 06:07:32;;;;;;;2.02;1.20;;;13.70;95.60;;;;;;925608;151;27407;-76
2023/03/13 06:09:59;;;;;;;3.27;1.12;;;13.70;95.60;;;;;;925080;151;27799;-76
2023/03/13 06:12:25;;;;;;;1.62;1.27;;;13.70;95.90;;;;;;927500;151;27338;-75
2023/03/13 06:14:52;;;;;;;1.00;0.90;;;13.80;95.90;;;;;;926989;151;27423;-75
2023/03/13 06:17:19;;;;;;;2.02;1.07;;;13.80;96.20;;;;;;927563;151;27420;-75
2023/03/13 06:19:45;;;;;;;2.22;1.20;;;13.80;96.50;;;;;;926201;151;27289;-75
2023/03/13 06:22:12;;;;;;;3.40;1.75;;;13.90;96.50;;;;;;926192;151;27278;-76
2023/03/13 06:24:38;;;;;;;1.57;1.47;;;13.90;96.50;;;;;;926625;151;27382;-76
2023/03/13 06:27:05;;;;;;;2.08;1.40;;;13.90;96.50;;;;;;926738;151;27525;-76
2023/03/13 06:29:32;;;;;;;1.70;1.60;;;14.00;96.80;;;;;;925381;151;27311;-76
2023/03/13 06:31:58;;;;;;;1.62;1.40;;;14.00;97.00;;;;;;926801;151;27364;-76
2023/03/13 06:34:25;;;;;;;2.20;1.95;;;14.00;97.30;;;;;;925885;151;27394;-76
2023/03/13 06:36:51;;;;;;;2.17;2.00;;;14.10;97.30;;;;;;927838;151;27415;-75
2023/03/13 06:39:18;;;;;;;1.32;1.22;;;14.10;97.40;;;;;;926445;151;27303;-76
2023/03/13 06:41:45;;;;;;;2.47;1.55;;;14.20;97.30;;;;;;909114;153;27781;-76
2023/03/13 06:44:11;;;;;;;1.67;1.47;;;14.30;97.40;;;;;;918831;153;27465;-76
2023/03/13 06:46:38;;;;;;;2.08;1.80;;;14.30;97.80;;;;;;911664;153;27442;-76
2023/03/13 06:49:04;;;;;;;1.80;1.70;;;14.30;97.90;;;;;;913477;153;27513;-75
2023/03/13 06:51:31;;;;;;;1.77;1.40;;;14.40;97.60;;;;;;909358;153;27334;-76
2023/03/13 06:53:57;;;;;;;2.65;1.50;;;14.40;97.90;;;;;;912319;153;27454;-75
2023/03/13 06:56:24;;;;;;;1.77;1.22;;;14.50;97.40;;;;;;925556;151;27407;-76
2023/03/13 06:58:51;;;;;;;2.90;1.20;;;14.50;97.30;;;;;;908878;153;27445;-76
2023/03/13 07:01:17;;;;;;;1.12;1.00;;;14.50;97.10;;;;;;920119;152;27403;-76
2023/03/13 07:03:44;;;;;;;0.93;0.90;;;14.60;97.20;;;;;;913376;153;27483;-76
2023/03/13 07:06:11;;;;;;;1.05;0.98;;;14.70;97.30;;;;;;927995;150;27443;-75
2023/03/13 07:08:37;;;;;;;0.85;0.62;;;14.70;97.20;;;;;;928293;150;27524;-76
2023/03/13 07:11:04;;;;;;;2.20;0.82;;;14.70;97.40;;;;;;930963;150;27366;-76
2023/03/13 07:13:30;;;;;;;1.15;0.72;;;14.80;97.30;;;;;;924082;153;27303;-75
2023/03/13 07:16:00;;;;;;;1.02;0.82;;;14.90;97.20;;;;;;928875;150;27400;-78
2023/03/13 07:18:26;;;;;;;0.75;0.75;;;14.90;97.20;;;;;;929163;150;27426;-76
2023/03/13 07:20:53;;;;;;;1.05;0.95;;;15.00;97.00;;;;;;933345;150;27385;-75
2023/03/13 07:23:20;;;;;;;0.68;0.68;;;15.10;97.20;;;;;;932375;150;27374;-75
2023/03/13 07:25:55;;;;;;;1.35;0.90;;;15.10;97.00;;;;;;930183;150;27382;-75
2023/03/13 07:28:21;;;;;;;0.80;0.78;;;15.20;96.90;;;;;;931949;150;27330;-75
2023/03/13 07:30:48;;;;;;;0.80;0.80;;;15.30;96.60;;;;;;931465;150;27422;-75
2023/03/13 07:33:14;;;;;;;1.07;0.98;;;15.30;96.80;;;;;;921366;153;27371;-74
2023/03/13 07:35:41;;;;;;;0.80;0.57;;;15.40;96.40;;;;;;913939;153;27438;-75
2023/03/13 07:38:08;;;;;;;0.55;0.55;;;15.40;96.10;;;;;;914385;152;27494;-76
2023/03/13 07:40:34;;;;;;;0.50;0.50;;;15.50;96.10;;;;;;913393;153;27493;-76
2023/03/13 07:43:01;;;;;;;0.68;0.50;;;15.50;95.90;;;;;;913824;152;27505;-76
2023/03/13 07:45:27;;;;;;;2.17;1.02;;;15.60;95.90;;;;;;929397;150;27321;-76
2023/03/13 07:47:54;;;;;;;2.02;1.47;;;15.60;95.70;;;;;;929831;150;27731;-76
2023/03/13 07:50:20;;;;;;;1.07;1.07;;;15.70;95.60;;;;;;916112;152;27418;-76
2023/03/13 07:52:47;;;;;;;1.30;1.20;;;15.70;95.40;;;;;;929558;150;27301;-76
2023/03/13 07:55:14;;;;;;;1.20;1.10;;;15.80;95.20;;;;;;930259;150;27950;-76
2023/03/13 07:57:40;;;;;;;0.90;0.90;;;15.80;95.00;;;;;;913794;153;27491;-76
2023/03/13 08:00:10;;;;;;;1.12;1.05;;;15.80;94.80;;;;;;913398;153;27489;-76
2023/03/13 08:02:33;;;;;;;0.45;0.45;;;15.90;94.70;;;;;;920185;152;27510;-76
2023/03/13 08:05:00;;;;;;;0.70;0.70;;;15.90;94.50;;;;;;900943;155;27458;-76
2023/03/13 08:07:27;;;;;;;0.80;0.80;;;15.90;94.40;;;;;;905356;154;27383;-77
2023/03/13 08:09:53;;;;;;;0.70;0.70;;;15.90;94.40;;;;;;902383;153;27399;-76
2023/03/13 08:12:20;;;;;;;0.93;0.80;;;15.90;94.20;;;;;;903555;154;27500;-76
2023/03/13 08:14:46;;;;;;;0.98;0.98;;;16.00;94.20;;;;;;938979;148;27353;-77
2023/03/13 08:17:13;;;;;;;1.40;1.00;;;16.00;94.40;;;;;;925097;151;27330;-77
2023/03/13 08:19:40;;;;;;;1.12;0.78;;;16.00;94.10;;;;;;923798;151;27385;-76
2023/03/13 08:22:06;;;;;;;0.62;0.62;;;16.00;94.20;;;;;;941135;148;27490;-76
2023/03/13 08:24:33;;;;;;;1.05;0.80;;;16.00;94.20;;;;;;904383;155;27435;-76
2023/03/13 08:26:59;;;;;;;1.62;1.00;;;16.00;94.20;;;;;;919811;152;27355;-76
2023/03/13 08:29:26;;;;;;;1.90;1.75;;;16.00;94.20;;;;;;920130;152;27396;-76
2023/03/13 08:31:53;;;;;;;2.50;2.30;;;16.00;94.00;;;;;;920662;152;27403;-76
2023/03/13 08:34:19;;;;;;;1.25;1.15;;;16.00;94.00;;;;;;903038;154;27518;-76
2023/03/13 08:36:46;;;;;;;2.15;1.52;;;16.00;94.10;;;;;;906250;154;27393;-76
2023/03/13 08:39:12;;;;;;;1.30;1.30;;;16.10;94.00;;;;;;901370;155;27397;-76
2023/03/13 08:41:42;;;;;;;1.10;1.10;;;16.10;94.00;;;;;;919401;152;27357;-76
2023/03/13 08:44:11;;;;;;;1.60;1.25;;;16.10;94.00;;;;;;918391;152;27431;-76
2023/03/13 08:46:37;;;;;;;3.00;2.60;;;16.10;93.90;;;;;;905808;154;27515;-76
2023/03/13 08:49:04;;;;;;;1.80;1.70;;;16.10;93.80;;;;;;905585;154;27470;-76
2023/03/13 08:51:30;;;;;;;3.55;2.50;;;16.10;93.70;;;;;;906350;153;27394;-76
2023/03/13 08:53:57;;;;;;;2.50;2.30;;;16.10;93.70;;;;;;903397;155;27315;-76
2023/03/13 08:56:24;;;;;;;2.35;1.70;;;16.10;93.60;;;;;;918549;152;27373;-76
2023/03/13 08:58:50;;;;;;;3.98;2.72;;;16.10;93.60;;;;;;904209;154;27387;-76
2023/03/13 09:01:17;;;;;;;2.25;1.67;;;16.20;93.60;;;;;;906354;154;27490;-76
2023/03/13 09:03:43;;;;;;;2.35;2.00;;;16.20;93.60;;;;;;911649;153;27392;-76
2023/03/13 09:06:10;;;;;;;2.50;2.30;;;16.20;93.70;;;;;;911032;153;27486;-76
2023/03/13 09:08:37;;;;;;;2.00;1.80;;;16.20;93.70;;;;;;928647;151;27375;-76
2023/03/13 09:11:06;;;;;;;1.62;1.50;;;16.30;93.70;;;;;;923838;151;27313;-76
2023/03/13 09:13:33;;;;;;;1.62;1.52;;;16.30;93.60;;;;;;925777;151;27419;-76
2023/03/13 09:15:59;;;;;;;1.98;1.40;;;16.40;93.70;;;;;;910827;153;27416;-77
2023/03/13 09:18:26;;;;;;;2.22;1.30;;;16.40;93.70;;;;;;908590;154;27455;-76
2023/03/13 09:20:52;;;;;;;1.37;1.27;;;16.40;93.70;;;;;;909051;154;27438;-76
2023/03/13 09:23:19;;;;;;;1.47;1.37;;;16.50;93.80;;;;;;925129;151;27498;-76
2023/03/13 09:25:46;;;;;;;1.17;1.15;;;16.60;93.70;;;;;;924414;151;27487;-76
2023/03/13 09:28:12;;;;;;;1.07;1.07;;;16.60;93.80;;;;;;926035;151;27364;-76
2023/03/13 09:30:39;;;;;;;1.40;1.30;;;16.70;93.80;;;;;;927740;150;27370;-76
2023/03/13 09:33:05;;;;;;;1.00;0.93;;;16.80;93.80;;;;;;909658;154;27337;-76
2023/03/13 09:35:32;;;;;;;1.92;1.10;;;16.90;93.80;;;;;;909047;153;27424;-76
2023/03/13 09:37:59;;;;;;;1.40;0.90;;;17.00;93.60;;;;;;911938;152;27365;-76
2023/03/13 09:40:25;;;;;;;1.10;1.10;;;17.10;93.40;;;;;;913259;153;27350;-76
2023/03/13 09:42:52;;;;;;;1.67;1.35;;;17.20;93.20;;;;;;908490;153;27392;-76
2023/03/13 09:45:27;;;;;;;1.65;0.95;;;17.30;92.90;;;;;;909047;153;27534;-76
2023/03/13 09:47:56;;;;;;;0.90;0.90;;;17.40;92.70;;;;;;910208;153;27369;-76
2023/03/13 09:50:23;;;;;;;1.05;0.95;;;17.50;92.40;;;;;;908635;153;27458;-76
2023/03/13 09:52:50;;;;;;;2.67;1.00;;;17.60;92.10;;;;;;917994;153;27407;-77
2023/03/13 09:55:22;;;;;;;1.80;0.93;;;17.70;91.90;;;;;;909770;153;27460;-76
2023/03/13 09:57:57;;;;;;;1.25;1.15;;;17.80;91.80;;;;;;912883;151;27352;-76
2023/03/13 10:00:27;;;;;;;1.57;1.32;;;17.90;91.30;;;;;;924380;151;27376;-77
2023/03/13 10:03:02;;;;;;;1.55;1.10;;;18.00;90.90;;;;;;923532;151;27425;-77
2023/03/13 10:05:30;;;;;;;0.98;0.95;;;18.10;90.70;;;;;;939311;148;27482;-76
2023/03/13 10:07:56;;;;;;;1.60;1.32;;;18.20;90.40;;;;;;938187;148;27473;-76
2023/03/13 10:10:25;;;;;;;1.10;1.10;;;18.20;90.10;;;;;;905342;154;27370;-76
2023/03/13 10:12:51;;;;;;;2.30;1.10;;;18.30;89.60;;;;;;916993;152;27415;-76
2023/03/13 10:15:30;;;;;;;1.30;1.20;;;18.30;88.50;;;;;;912508;153;27376;-76
2023/03/13 10:17:56;;;;;;;1.30;1.20;;;18.40;86.50;;;;;;903099;155;27483;-76
2023/03/13 10:20:29;;;;;;;1.55;1.20;;;18.40;86.70;;;;;;904518;154;27393;-76
2023/03/13 10:23:04;;;;;;;3.12;1.70;;;18.30;86.50;;;;;;937596;148;27457;-76
2023/03/13 10:25:34;;;;;;;3.65;2.45;;;18.30;86.50;;;;;;939405;148;27357;-76
2023/03/13 10:28:00;;;;;;;2.45;1.50;;;18.30;85.70;;;;;;906250;154;27495;-76
2023/03/13 10:30:30;;;;;;;1.82;1.50;;;18.30;85.90;;;;;;918404;152;27401;-77
2023/03/13 10:32:59;;;;;;;3.05;2.10;;;18.30;86.10;;;;;;903394;155;27439;-76
2023/03/13 10:35:26;;;;;;;3.62;3.08;;;18.40;86.70;;;;;;901836;154;27790;-76
2023/03/13 10:37:52;;;;;;;3.83;2.05;;;18.40;87.10;;;;;;913542;152;27383;-76
2023/03/13 10:40:24;;;;;;;3.75;2.20;;;18.50;87.30;;;;;;918966;152;27833;-76
2023/03/13 10:42:51;;;;;;;2.12;1.80;;;18.60;86.80;;;;;;901210;155;27405;-76
2023/03/13 10:45:17;;;;;;;1.70;1.60;;;18.70;86.50;;;;;;917212;152;27384;-79
2023/03/13 10:47:44;;;;;;;2.37;1.98;;;18.80;85.70;;;;;;905640;154;27463;-76
2023/03/13 10:50:16;;;;;;;1.77;1.67;;;18.80;84.80;;;;;;923467;151;27425;-76
2023/03/13 10:52:43;;;;;;;2.27;1.85;;;18.90;84.20;;;;;;922578;151;27444;-76
2023/03/13 10:55:09;;;;;;;1.37;1.32;;;18.90;84.20;;;;;;906358;154;27433;-76
2023/03/13 10:57:36;;;;;;;1.20;1.10;;;19.00;84.40;;;;;;917433;152;27423;-75
2023/03/13 11:00:21;;;;;;;1.12;1.05;;;19.10;84.90;;;;;;904711;153;27532;-76
2023/03/13 11:02:47;;;;;;;1.35;1.10;;;19.20;84.60;;;;;;866048;161;27517;-76
2023/03/13 11:05:27;;;;;;;1.85;1.12;;;19.40;84.00;;;;;;883180;159;27442;-75
2023/03/13 11:07:52;;;;;;;2.20;1.20;;;19.50;83.20;;;;;;884441;154;27380;-76
2023/03/13 11:10:22;;;;;;;2.55;1.42;;;19.60;82.10;;;;;;928552;151;27438;-76
2023/03/13 11:12:50;;;;;;;1.42;1.25;;;19.70;82.30;;;;;;923886;151;27469;-76
2023/03/13 11:15:15;;;;;;;1.37;1.10;;;19.80;81.50;;;;;;909080;153;27493;-76
2023/03/13 11:17:41;;;;;;;2.55;1.27;;;19.90;81.60;;;;;;926121;153;27425;-76
2023/03/13 11:20:08;;;;;;;1.20;1.05;;;20.00;80.80;;;;;;927554;150;27417;-76
2023/03/13 11:22:53;;;;;;;1.37;1.00;;;20.20;81.00;;;;;;925730;153;27480;-76
2023/03/13 11:25:20;;;;;;;1.17;1.07;;;20.30;79.70;;;;;;928187;150;27547;-76
2023/03/13 11:28:14;;;;;;;1.05;1.00;;;20.40;78.80;;;;;;908857;153;27393;-76
2023/03/13 11:30:50;;;;;;;1.60;1.40;;;20.50;78.20;;;;;;911335;153;27733;-75
2023/03/13 11:33:19;;;;;;;2.40;1.42;;;20.50;76.40;;;;;;924366;151;27395;-75
2023/03/13 11:35:51;;;;;;;1.57;1.47;;;20.50;76.00;;;;;;908870;153;27538;-76
2023/03/13 11:38:20;;;;;;;1.32;1.22;;;20.40;74.10;;;;;;906971;151;27362;-76
2023/03/13 11:41:06;;;;;;;1.87;1.35;;;20.40;75.00;;;;;;910189;153;27312;-76
2023/03/13 11:43:44;;;;;;;1.82;1.40;;;20.30;75.10;;;;;;918326;153;27425;-76
2023/03/13 11:46:32;;;;;;;1.30;1.20;;;20.20;75.00;;;;;;909814;154;27429;-75
2023/03/13 11:49:26;;;;;;;1.72;1.00;;;20.10;75.40;;;;;;907925;153;27386;-76
2023/03/13 11:52:01;;;;;;;1.60;1.50;;;20.00;75.80;;;;;;925780;151;27373;-76
2023/03/13 11:54:33;;;;;;;1.05;1.05;;;20.00;76.40;;;;;;917985;153;27468;-76
2023/03/13 11:57:12;;;;;;;1.30;1.20;;;19.90;76.70;;;;;;910508;153;27415;-75
2023/03/13 11:59:41;;;;;;;1.32;1.15;;;19.90;76.90;;;;;;927367;151;27380;-76
2023/03/13 12:02:26;;;;;;;2.17;1.32;;;19.90;76.80;;;;;;926519;151;27630;-76
2023/03/13 12:05:08;;;;;;;1.50;1.10;;;19.90;76.60;;;;;;920775;151;27388;-76
2023/03/13 12:07:37;;;;;;;2.55;1.15;;;19.90;76.90;;;;;;911374;154;27416;-76
2023/03/13 12:10:19;;;;;;;0.90;0.90;;;19.90;76.90;;;;;;903733;155;27461;-76
2023/03/13 12:12:48;;;;;;;2.58;1.50;;;19.90;76.70;;;;;;917633;151;27489;-76
2023/03/13 12:15:18;;;;;;;0.90;0.90;;;19.80;76.60;;;;;;902495;155;27398;-76
2023/03/13 12:17:50;;;;;;;2.37;0.90;;;19.80;76.40;;;;;;903414;155;27436;-76
2023/03/13 12:20:17;;;;;;;1.42;1.27;;;19.80;76.40;;;;;;918020;152;27427;-76
2023/03/13 12:23:02;;;;;;;3.35;1.17;;;19.80;76.70;;;;;;923126;150;27307;-76
2023/03/13 12:25:31;;;;;;;1.62;1.10;;;19.80;76.90;;;;;;923243;151;27392;-76
2023/03/13 12:27:57;;;;;;;1.10;1.10;;;19.80;76.60;;;;;;924961;150;27796;-76
2023/03/13 12:30:27;;;;;;;3.35;1.22;;;19.70;76.50;;;;;;923435;150;27348;-76
2023/03/13 12:33:02;;;;;;;1.98;1.20;;;19.70;76.40;;;;;;923156;150;27391;-77
2023/03/13 12:35:29;;;;;;;1.65;1.20;;;19.70;76.40;;;;;;923075;150;27414;-76
2023/03/13 12:38:05;;;;;;;3.55;1.22;;;19.60;76.30;;;;;;922529;151;27398;-76
2023/03/13 12:40:37;;;;;;;2.05;1.80;;;19.60;76.20;;;;;;903165;156;27395;-77
2023/03/13 12:43:04;;;;;;;2.17;1.00;;;19.60;76.30;;;;;;925375;151;27389;-76
2023/03/13 12:45:33;;;;;;;1.27;1.10;;;19.60;76.40;;;;;;922639;150;27379;-81
2023/03/13 12:48:21;;;;;;;1.40;1.17;;;19.60;76.50;;;;;;924071;150;27475;-76
2023/03/13 12:50:56;;;;;;;1.17;1.12;;;19.70;76.90;;;;;;921767;151;27421;-76